Flight Track Log - Related Links

Times and Time Zones

All times are in EDT time to prevent confusion due to time zone crossing. See the NKS236 flight status page for this flight to view local times or setup timezone preferences in your user account.


Time Position Orientation Groundspeed Altitude Reporting Facility
EDT Latitude Longitude Course Direction KTS MPH feet Rate Location/Type
Fri 03:28:07 PM 7.8580 -75.4590 353° North 468 539 30,900  Level FlightAware ADS-B
Fri 03:28:45 PM 7.9270 -75.4670 353° North 468 539 30,900 1,465 Level FlightAware ADS-B
Fri 03:29:33 PM 8.0520 -75.4960 347° North 455 524 33,000 1,311 Climbing FlightAware ADS-B
Fri 03:30:44 PM 8.1860 -75.5220 349° North 455 524 33,500 545 Climbing FlightAware ADS-B
Fri 03:31:23 PM 8.2990 -75.5440 349° North 452 520 34,000 345 Climbing FlightAware ADS-B
Fri 03:32:11 PM 8.3900 -75.5620 349° North 453 521 34,000  Level FlightAware ADS-B
Fri 03:32:48 PM 8.4730 -75.5780 349° North 454 522 34,000  Level FlightAware ADS-B
Fri 03:33:33 PM 8.5670 -75.5960 349° North 456 525 34,000  Level FlightAware ADS-B
Fri 03:34:19 PM 8.6500 -75.6130 349° North 458 527 34,000  Level FlightAware ADS-B
Fri 03:36:00 PM 8.8597 -75.6633 347° North  Level Estimated
Fri 03:37:00 PM 8.9843 -75.6933 347° North  Level Estimated
Fri 03:38:00 PM 9.1088 -75.7232 347° North  Level Estimated
Fri 03:39:00 PM 9.2334 -75.7532 347° North  Level Estimated
Fri 03:39:04 PM 9.2540 -75.7310 347° North 465 535 34,000  Level FlightAware ADS-B
Fri 03:39:52 PM 9.3480 -75.7490 349° North 465 535 34,000  Level FlightAware ADS-B
Fri 03:40:44 PM 9.4670 -75.7720 349° North 454 522 34,000 432 Level FlightAware ADS-B
Fri 03:41:43 PM 9.5990 -75.7980 349° North 455 524 34,800 947 Climbing FlightAware ADS-B
Fri 03:42:38 PM 9.7120 -75.8200 349° North 450 518 35,800 655 Climbing FlightAware ADS-B
Fri 03:43:33 PM 9.8190 -75.8410 349° North 440 506 36,000 107 Climbing FlightAware ADS-B
Fri 03:44:30 PM 9.9340 -75.8640 349° North 445 512 36,000  Level FlightAware ADS-B
Fri 03:47:00 PM 10.2451 -75.9403 346° North  Level Estimated
Fri 03:48:00 PM 10.3696 -75.9708 346° North  Level Estimated
Fri 03:49:00 PM 10.4941 -76.0014 346° North  Level Estimated
Fri 03:50:00 PM 10.6185 -76.0320 346° North  Level Estimated
Fri 03:51:00 PM 10.7430 -76.0627 346° North  Level Estimated
Fri 03:52:00 PM 10.8674 -76.0933 346° North  Level Estimated
Fri 03:53:00 PM 10.9918 -76.1240 346° North  Level Estimated
Fri 03:54:00 PM 11.1163 -76.1547 346° North  Level Estimated
Fri 03:54:27 PM 11.1030 -76.0950 346° North 438 504 36,000  Level FlightAware ADS-B
Fri 03:55:03 PM 11.2110 -76.1170 349° North 438 504 36,000  Level FlightAware ADS-B
Fri 03:55:48 PM 11.3210 -76.1390 349° North 439 505 36,000  Level FlightAware ADS-B
Fri 03:58:00 PM 11.5945 -76.2078 346° North  Level Estimated
Fri 03:58:08 PM 11.5920 -76.1920 346° North 441 507 36,000  Level FlightAware ADS-B
Fri 03:58:52 PM 11.6670 -76.2070 349° North 441 507 36,000  Level FlightAware ADS-B
Fri 03:59:53 PM 11.7710 -76.2280 349° North 441 507 36,000  Level FlightAware ADS-B
Fri 04:00:27 PM 11.8290 -76.2390 349° North 441 507 36,000  Level FlightAware ADS-B
Fri 04:01:17 PM 11.9140 -76.2560 349° North 441 507 36,000  Level FlightAware ADS-B
Fri 04:01:53 PM 11.9750 -76.2680 349° North 441 507 36,000  Level FlightAware ADS-B
Fri 04:02:41 PM 12.0570 -76.2850 349° North 441 507 36,000  Level FlightAware ADS-B
Fri 04:03:17 PM 12.1180 -76.2970 349° North 441 507 36,000  Level FlightAware ADS-B
Fri 04:04:05 PM 12.2000 -76.3130 349° North 441 507 36,000  Level FlightAware ADS-B
Fri 04:04:41 PM 12.2610 -76.3250 349° North 441 507 36,000  Level FlightAware ADS-B
Fri 04:05:53 PM 12.3840 -76.3500 349° North 441 507 36,000  Level FlightAware ADS-B
Fri 04:07:07 PM 12.5100 -76.3750 349° North 441 507 36,000  Level FlightAware ADS-B
Fri 04:09:00 PM 12.7438 -76.4354 346° North  Level Estimated
Fri 04:10:00 PM 12.8680 -76.4675 346° North  Level Estimated
Fri 04:11:00 PM 12.9921 -76.4996 346° North  Level Estimated
Fri 04:12:00 PM 13.1163 -76.5318 346° North  Level Estimated
Fri 04:13:00 PM 13.2404 -76.5640 346° North  Level Estimated
Fri 04:14:00 PM 13.3645 -76.5963 346° North  Level Estimated
Fri 04:15:00 PM 13.4886 -76.6285 346° North  Level Estimated
Fri 04:16:00 PM 13.6128 -76.6609 346° North  Level Estimated
Fri 04:17:00 PM 13.7369 -76.6932 346° North  Level Estimated
Fri 04:18:00 PM 13.8610 -76.7256 346° North  Level Estimated
Fri 04:19:00 PM 13.9851 -76.7580 346° North  Level Estimated
Fri 04:20:00 PM 14.1092 -76.7904 346° North  Level Estimated
Fri 04:21:00 PM 14.2333 -76.8229 346° North  Level Estimated
Fri 04:22:00 PM 14.3574 -76.8554 346° North  Level Estimated
Fri 04:23:00 PM 14.4815 -76.8880 346° North  Level Estimated
Fri 04:24:00 PM 14.6056 -76.9206 346° North  Level Estimated
Fri 04:25:00 PM 14.7297 -76.9532 346° North  Level Estimated
Fri 04:26:00 PM 14.8538 -76.9858 346° North  Level Estimated
Fri 04:27:00 PM 14.9778 -77.0185 346° North  Level Estimated
Fri 04:28:00 PM 15.1019 -77.0513 346° North  Level Estimated
Fri 04:29:00 PM 15.2260 -77.0841 346° North  Level Estimated
Fri 04:30:00 PM 15.3500 -77.1169 346° North  Level Estimated
Fri 04:31:00 PM 15.4741 -77.1497 346° North  Level Estimated
Fri 04:32:00 PM 15.5981 -77.1826 346° North  Level Estimated
Fri 04:33:00 PM 15.7222 -77.2156 346° North  Level Estimated
Fri 04:34:00 PM 15.8462 -77.2485 346° North  Level Estimated
Fri 04:35:00 PM 15.9702 -77.2815 346° North  Level Estimated
Fri 04:36:00 PM 16.0943 -77.3146 346° North  Level Estimated
Fri 04:37:00 PM 16.2183 -77.3477 346° North  Level Estimated
Fri 04:38:00 PM 16.3423 -77.3808 346° North  Level Estimated
Fri 04:39:00 PM 16.4663 -77.4140 346° North  Level Estimated
Fri 04:40:00 PM 16.5903 -77.4472 346° North  Level Estimated
Fri 04:41:00 PM 16.7143 -77.4805 346° North  Level Estimated
Fri 04:42:00 PM 16.8383 -77.5138 346° North  Level Estimated
Fri 04:43:00 PM 16.9623 -77.5471 346° North  Level Estimated
Fri 04:44:00 PM 17.0863 -77.5806 346° North  Level Estimated
Fri 04:45:00 PM 17.2103 -77.6140 346° North  Level Estimated
Fri 04:46:00 PM 17.3343 -77.6475 346° North  Level Estimated
Fri 04:47:00 PM 17.4583 -77.6810 346° North  Level Estimated
Fri 04:48:00 PM 17.5822 -77.7146 346° North  Level Estimated
Fri 04:49:00 PM 17.7062 -77.7482 346° North  Level Estimated
Fri 04:50:00 PM 17.8301 -77.7819 346° North  Level Estimated
Fri 04:51:00 PM 17.9541 -77.8156 345° North  Level Estimated
Fri 04:52:00 PM 18.0780 -77.8494 345° North  Level Estimated
Fri 04:53:00 PM 18.2020 -77.8832 345° North  Level Estimated
Fri 04:54:00 PM 18.3259 -77.9170 345° North  Level Estimated
Fri 04:55:00 PM 18.4498 -77.9509 345° North  Level Estimated
Fri 04:56:00 PM 18.5737 -77.9849 345° North  Level Estimated
Fri 04:57:00 PM 18.6977 -78.0189 345° North  Level Estimated
Fri 04:58:00 PM 18.8216 -78.0530 345° North  Level Estimated
Fri 04:59:00 PM 18.9455 -78.0871 345° North  Level Estimated
Fri 05:00:00 PM 19.0693 -78.1212 345° North  Level Estimated
Fri 05:01:00 PM 19.1932 -78.1554 345° North  Level Estimated
Fri 05:02:00 PM 19.3171 -78.1897 345° North  Level Estimated
Fri 05:03:00 PM 19.4410 -78.2240 345° North  Level Estimated
Fri 05:04:00 PM 19.5649 -78.2584 345° North  Level Estimated
Fri 05:05:00 PM 19.6887 -78.2928 345° North  Level Estimated
Fri 05:06:00 PM 19.8126 -78.3273 345° North  Level Estimated
Fri 05:07:00 PM 19.9364 -78.3618 345° North  Level Estimated
Fri 05:08:00 PM 20.0603 -78.3964 345° North  Level Estimated
Fri 05:09:00 PM 20.1841 -78.4310 345° North  Level Estimated
Fri 05:10:00 PM 20.3079 -78.4657 345° North  Level Estimated
Fri 05:11:00 PM 20.4318 -78.5004 345° North  Level Estimated
Fri 05:12:00 PM 20.5556 -78.5352 345° North  Level Estimated
Fri 05:13:00 PM 20.6794 -78.5701 345° North  Level Estimated
Fri 05:14:00 PM 20.8032 -78.6050 345° North  Level Estimated
Fri 05:15:00 PM 20.9270 -78.6400 345° North  Level Estimated
Fri 05:16:00 PM 21.0508 -78.6750 345° North  Level Estimated
Fri 05:17:00 PM 21.1746 -78.7101 345° North  Level Estimated
Fri 05:18:00 PM 21.2983 -78.7452 345° North  Level Estimated
Fri 05:19:00 PM 21.4221 -78.7804 345° North  Level Estimated
Fri 05:20:00 PM 21.5459 -78.8157 345° North  Level Estimated
Fri 05:21:00 PM 21.6696 -78.8510 345° North  Level Estimated
Fri 05:22:00 PM 21.7934 -78.8864 345° North  Level Estimated
Fri 05:23:00 PM 21.9171 -78.9218 345° North  Level Estimated
Fri 05:24:00 PM 22.0408 -78.9574 345° North  Level Estimated
Fri 05:25:00 PM 22.1645 -78.9929 345° North  Level Estimated
Fri 05:26:00 PM 22.2882 -79.0285 345° North  Level Estimated
Fri 05:27:00 PM 22.4119 -79.0642 345° North  Level Estimated
Fri 05:28:00 PM 22.5357 -79.1000 345° North  Level Estimated
Fri 05:29:00 PM 22.6593 -79.1358 345° North  Level Estimated
Fri 05:30:00 PM 22.7830 -79.1717 345° North  Level Estimated
Fri 05:31:00 PM 22.9067 -79.2077 345° North  Level Estimated
Fri 05:32:00 PM 23.0177 -79.2400 345° North  Level Estimated
Fri 05:33:00 PM 23.1287 -79.2724 345° North  Level Estimated
Fri 05:34:00 PM 23.2398 -79.3048 345° North  Level Estimated
Fri 05:35:00 PM 23.3508 -79.3373 345° North  Level Estimated
Fri 05:36:00 PM 23.4618 -79.3699 345° North  Level Estimated
Fri 05:37:00 PM 23.5728 -79.4025 345° North  Level Estimated
Fri 05:38:00 PM 23.6838 -79.4351 345° North  Level Estimated
Fri 05:39:00 PM 23.7947 -79.4679 345° North  Level Estimated
Fri 05:40:00 PM 23.9057 -79.5006 345° North  Level Estimated
Fri 05:40:50 PM 23.8720 -79.0530 345° North 452 520 36,000  Level FlightAware ADS-B
Fri 05:41:00 PM 24.0167 -79.5335 345° North  Level Estimated
Fri 05:41:25 PM 23.9420 -79.0620 353° North 453 521 36,000  Level FlightAware ADS-B
Fri 05:42:00 PM 24.0190 -79.0720 353° North 452 520 36,000  Level FlightAware ADS-B
Fri 05:42:55 PM 24.1300 -79.0870 353° North 451 519 36,000  Level FlightAware ADS-B
Fri 05:43:36 PM 24.2140 -79.0980 353° North 450 518 36,000  Level FlightAware ADS-B
Fri 05:44:20 PM 24.3080 -79.1100 353° North 441 507 36,000  Level FlightAware ADS-B
Fri 05:45:00 PM 24.3920 -79.1210 353° North 440 506 36,000  Level FlightAware ADS-B
Fri 05:45:56 PM 24.5070 -79.1360 353° North 440 506 36,000 -253 Level FlightAware ADS-B
Fri 05:46:35 PM 24.5880 -79.1470 353° North 437 503 35,600 -776 Descending FlightAware ADS-B
Fri 05:47:21 PM 24.6810 -79.1590 353° North 441 507 34,900 -1,333 Descending FlightAware ADS-B
Fri 05:48:05 PM 24.7740 -79.1710 353° North 452 520 33,600 -2,780 Descending FlightAware ADS-B
Fri 05:48:43 PM 24.8510 -79.1960 344° North 472 543 31,100 -3,385 Descending FlightAware ADS-B
Fri 05:49:23 PM 24.9320 -79.2320 338° Northwest 464 534 29,200 -2,964 Descending FlightAware ADS-B
Fri 05:50:06 PM 25.0170 -79.2690 338° Northwest 453 521 27,000 -3,036 Descending FlightAware ADS-B
Fri 05:50:46 PM 25.0960 -79.3030 339° North 448 516 25,000 -2,143 Descending FlightAware ADS-B
Fri 05:51:30 PM 25.1850 -79.3410 339° North 449 517 24,000 -1,079 Descending FlightAware ADS-B
Fri 05:52:15 PM 25.2710 -79.3790 338° Northwest 432 497 23,400 -2,250 Descending FlightAware ADS-B
Fri 05:52:58 PM 25.3510 -79.4140 338° Northwest 436 502 20,700 -3,759 Descending FlightAware ADS-B
Fri 05:53:38 PM 25.4260 -79.4460 339° North 432 497 18,200 -3,585 Descending FlightAware ADS-B
Fri 05:54:20 PM 25.5060 -79.4810 338° Northwest 420 483 15,800 -3,231 Descending FlightAware ADS-B
Fri 05:54:56 PM 25.5680 -79.5080 339° North 413 475 14,000 -2,938 Descending FlightAware ADS-B
Fri 05:55:56 PM 25.6740 -79.5550 338° Northwest 397 457 11,100 -2,901 Descending FlightAware ADS-B
Fri 05:56:27 PM 25.7260 -79.5770 339° North 383 441 9,600 -2,947 Descending FlightAware ADS-B
Fri 05:56:53 PM 25.7680 -79.5950 339° North 381 438 8,300 -3,111 Descending FlightAware ADS-B
Fri 05:57:21 PM 25.8110 -79.6150 337° Northwest 369 425 6,800 -2,864 Descending FlightAware ADS-B
Fri 05:57:37 PM 25.8400 -79.6300 335° Northwest 359 413 6,200 -1,043 Descending FlightAware ADS-B
Fri 05:58:07 PM 25.8680 -79.6730 306° West 321 369 6,000 -218 Descending FlightAware ADS-B
Fri 05:58:32 PM 25.8830 -79.7080 295° West 286 329 6,000  Level FlightAware ADS-B
Fri 05:58:58 PM 25.8970 -79.7420 295° West 278 320 6,000  Level FlightAware ADS-B
Fri 05:59:08 PM 25.9030 -79.7550 297° West 277 319 6,000  Level FlightAware ADS-B
Fri 05:59:44 PM 25.9230 -79.8010 296° West 274 315 6,000  Level FlightAware ADS-B
Fri 06:00:04 PM 25.9340 -79.8280 294° West 276 318 6,000  Level FlightAware ADS-B
Fri 06:00:49 PM 25.9580 -79.8830 296° West 241 277 6,000  Level FlightAware ADS-B
Fri 06:01:15 PM 25.9700 -79.9120 295° West 237 273 6,000  Level FlightAware ADS-B
Fri 06:01:46 PM 25.9850 -79.9460 296° West 235 270 6,000  Level FlightAware ADS-B
Fri 06:02:16 PM 26.0020 -79.9760 302° West 235 270 6,000  Level FlightAware ADS-B
Fri 06:02:47 PM 26.0220 -80.0050 308° West 227 261 6,000  Level FlightAware ADS-B
Fri 06:02:57 PM 26.0320 -80.0090 340° North 219 252 6,000  Level FlightAware ADS-B
Fri 06:03:16 PM 26.0510 -80.0120 352° North 208 239 6,000  Level FlightAware ADS-B
Fri 06:03:37 PM 26.0720 -80.0140 355° North 208 239 6,000  Level FlightAware ADS-B
Fri 06:04:08 PM 26.1030 -80.0170 355° North 208 239 6,000  Level FlightAware ADS-B
Fri 06:04:38 PM 26.1330 -80.0200 355° North 209 241 6,000  Level FlightAware ADS-B
Fri 06:04:49 PM 26.1440 -80.0220 351° North 208 239 6,000  Level FlightAware ADS-B
Fri 06:05:20 PM 26.1740 -80.0300 347° North 214 246 6,000  Level FlightAware ADS-B
Fri 06:05:29 PM 26.1800 -80.0390 307° West 208 239 6,000  Level FlightAware ADS-B
Fri 06:05:40 PM 26.1820 -80.0490 283° West 210 242 6,000  Level FlightAware ADS-B
Fri 06:06:00 PM 26.1790 -80.0700 261° West 210 242 6,000  Level FlightAware ADS-B
Fri 06:06:16 PM 26.1750 -80.0860 254° West 209 241 6,000  Level FlightAware ADS-B
Fri 06:06:42 PM 26.1680 -80.1130 254° West 198 228 6,000 -429 Level FlightAware ADS-B
Fri 06:07:12 PM 26.1610 -80.1420 255° West 185 213 5,600 -1,053 Descending FlightAware ADS-B
Fri 06:07:39 PM 26.1550 -80.1660 254° West 187 215 5,000 -1,472 Descending FlightAware ADS-B
Fri 06:08:05 PM 26.1490 -80.1910 255° West 193 222 4,300 -1,500 Descending FlightAware ADS-B
Fri 06:08:35 PM 26.1430 -80.2190 257° West 173 199 3,600 -1,579 Descending FlightAware ADS-B
Fri 06:09:02 PM 26.1380 -80.2420 256° West 174 200 2,800 -1,556 Descending FlightAware ADS-B
Fri 06:09:29 PM 26.1310 -80.2630 250° West 177 204 2,200 -1,333 Descending FlightAware ADS-B
Fri 06:09:47 PM 26.1160 -80.2700 203° Southwest 165 190 1,800 -828 Descending FlightAware ADS-B
Fri 06:09:58 PM 26.1080 -80.2700 180° South 169 194 1,800 -231 Level FlightAware ADS-B
Fri 06:10:13 PM 26.0960 -80.2650 159° South 161 185 1,700 -600 Descending FlightAware ADS-B
Fri 06:10:38 PM 26.0800 -80.2530 146° Southeast 150 173 1,400 -585 Descending FlightAware ADS-B
Fri 06:10:54 PM 26.0780 -80.2420 101° East 149 171 1,300 -638 Descending FlightAware ADS-B
Fri 06:12:12 PM 26.0770 -80.1880 91° East 128 147 400 -692 Descending FlightAware ADS-B
Fri 06:20:00 PM 26.0667 -80.1500 77° East  Level FlightAware Approximate

Login

Don't have an account? Register now (free) for customized features, flight alerts, and more!